Terminal Aerodrome Forecast
Issued by NWS

Home | Current Version | Previous Version | Text Only | Print | Product List | Glossary On
Versions: 1 2 3 4 5 6 7 8 9 10 11 12
000
FTUS45 KRIW 202300
TAFCOD
TAF
KCOD 202326Z 2100/2124 VRB06KT P6SM VCSH SCT080 BKN110
     FM210100 26010G17KT P6SM VCTS SCT070CB BKN100
     FM210300 VRB06KT P6SM VCSH OVC070
     FM210800 20007KT P6SM SCT080 BKN150
     FM212000 VRB10KT P6SM VCTS SCT060CB BKN120
      AMD LTD TO CLD VIS AND WIND=

USA.gov is the U.S. government's official web portal to all federal, state and local government web resources and services.